sensor_id;sensor_type;location;lat;lon;timestamp;P1;durP1;ratioP1;P2;durP2;ratioP2
5678;SDS011;2862;52.560;13.566;2024-01-16T00:04:17;11.90;;;0.50;;
5678;SDS011;2862;52.560;13.566;2024-01-16T00:14:21;11.30;;;0.30;;
5678;SDS011;2862;52.560;13.566;2024-01-16T00:24:24;13.93;;;0.47;;
5678;SDS011;2862;52.560;13.566;2024-01-16T00:34:29;12.93;;;0.40;;
5678;SDS011;2862;52.560;13.566;2024-01-16T00:44:32;12.60;;;0.30;;
5678;SDS011;2862;52.560;13.566;2024-01-16T00:54:38;13.40;;;0.37;;
5678;SDS011;2862;52.560;13.566;2024-01-16T01:04:42;14.07;;;0.40;;
5678;SDS011;2862;52.560;13.566;2024-01-16T01:14:47;10.80;;;0.30;;
5678;SDS011;2862;52.560;13.566;2024-01-16T01:24:52;12.90;;;0.30;;
5678;SDS011;2862;52.560;13.566;2024-01-16T01:34:59;11.67;;;0.27;;
5678;SDS011;2862;52.560;13.566;2024-01-16T01:45:02;9.63;;;0.20;;
5678;SDS011;2862;52.560;13.566;2024-01-16T01:55:07;10.03;;;0.20;;
5678;SDS011;2862;52.560;13.566;2024-01-16T02:05:14;9.23;;;0.20;;
5678;SDS011;2862;52.560;13.566;2024-01-16T02:15:19;9.90;;;0.20;;
5678;SDS011;2862;52.560;13.566;2024-01-16T02:25:23;13.13;;;0.20;;
5678;SDS011;2862;52.560;13.566;2024-01-16T02:35:26;8.30;;;0.20;;
5678;SDS011;2862;52.560;13.566;2024-01-16T02:45:31;11.57;;;0.30;;
5678;SDS011;2862;52.560;13.566;2024-01-16T02:55:36;12.90;;;0.80;;
5678;SDS011;2862;52.560;13.566;2024-01-16T03:05:41;11.03;;;0.30;;
5678;SDS011;2862;52.560;13.566;2024-01-16T03:15:44;9.33;;;0.33;;
5678;SDS011;2862;52.560;13.566;2024-01-16T03:25:49;13.30;;;0.73;;
5678;SDS011;2862;52.560;13.566;2024-01-16T03:35:52;15.13;;;0.80;;
5678;SDS011;2862;52.560;13.566;2024-01-16T03:45:57;13.77;;;0.67;;
5678;SDS011;2862;52.560;13.566;2024-01-16T03:56:01;11.60;;;0.60;;
5678;SDS011;2862;52.560;13.566;2024-01-16T04:06:13;10.70;;;0.50;;
5678;SDS011;2862;52.560;13.566;2024-01-16T04:16:17;14.90;;;0.83;;
5678;SDS011;2862;52.560;13.566;2024-01-16T04:26:21;19.53;;;1.50;;
5678;SDS011;2862;52.560;13.566;2024-01-16T04:36:26;15.93;;;0.90;;
5678;SDS011;2862;52.560;13.566;2024-01-16T04:46:31;15.63;;;1.47;;
5678;SDS011;2862;52.560;13.566;2024-01-16T04:56:34;14.67;;;2.73;;
5678;SDS011;2862;52.560;13.566;2024-01-16T05:06:39;12.97;;;1.77;;
5678;SDS011;2862;52.560;13.566;2024-01-16T05:16:42;14.00;;;0.93;;
5678;SDS011;2862;52.560;13.566;2024-01-16T05:26:47;11.87;;;1.13;;
5678;SDS011;2862;52.560;13.566;2024-01-16T05:36:50;10.53;;;0.63;;
5678;SDS011;2862;52.560;13.566;2024-01-16T05:46:55;17.17;;;2.70;;
5678;SDS011;2862;52.560;13.566;2024-01-16T05:56:58;12.13;;;1.00;;
5678;SDS011;2862;52.560;13.566;2024-01-16T06:07:03;12.03;;;0.90;;
5678;SDS011;2862;52.560;13.566;2024-01-16T06:17:08;19.37;;;1.10;;
5678;SDS011;2862;52.560;13.566;2024-01-16T06:27:13;18.30;;;2.30;;
5678;SDS011;2862;52.560;13.566;2024-01-16T06:37:20;20.50;;;2.10;;
5678;SDS011;2862;52.560;13.566;2024-01-16T06:47:25;20.53;;;3.13;;
5678;SDS011;2862;52.560;13.566;2024-01-16T06:57:28;12.70;;;2.40;;
5678;SDS011;2862;52.560;13.566;2024-01-16T07:07:33;15.77;;;2.43;;
5678;SDS011;2862;52.560;13.566;2024-01-16T07:17:36;29.23;;;4.20;;
5678;SDS011;2862;52.560;13.566;2024-01-16T07:27:40;15.73;;;3.13;;
5678;SDS011;2862;52.560;13.566;2024-01-16T07:37:47;19.57;;;2.50;;
5678;SDS011;2862;52.560;13.566;2024-01-16T07:47:51;14.67;;;2.40;;
5678;SDS011;2862;52.560;13.566;2024-01-16T07:57:55;19.77;;;3.20;;
5678;SDS011;2862;52.560;13.566;2024-01-16T08:07:59;15.50;;;2.53;;
5678;SDS011;2862;52.560;13.566;2024-01-16T08:18:03;16.23;;;1.63;;
5678;SDS011;2862;52.560;13.566;2024-01-16T08:28:07;18.33;;;1.53;;
5678;SDS011;2862;52.560;13.566;2024-01-16T08:38:10;12.80;;;1.40;;
5678;SDS011;2862;52.560;13.566;2024-01-16T08:48:15;15.87;;;1.67;;
5678;SDS011;2862;52.560;13.566;2024-01-16T08:58:18;16.87;;;1.30;;
5678;SDS011;2862;52.560;13.566;2024-01-16T09:08:23;15.87;;;1.70;;
5678;SDS011;2862;52.560;13.566;2024-01-16T09:18:28;12.10;;;1.93;;
5678;SDS011;2862;52.560;13.566;2024-01-16T09:28:32;18.03;;;4.00;;
5678;SDS011;2862;52.560;13.566;2024-01-16T09:38:35;18.40;;;4.30;;
5678;SDS011;2862;52.560;13.566;2024-01-16T09:48:39;21.30;;;4.50;;
5678;SDS011;2862;52.560;13.566;2024-01-16T09:58:44;19.47;;;4.20;;
5678;SDS011;2862;52.560;13.566;2024-01-16T10:08:53;22.53;;;4.80;;
5678;SDS011;2862;52.560;13.566;2024-01-16T10:19:03;19.67;;;4.77;;
5678;SDS011;2862;52.560;13.566;2024-01-16T10:29:08;17.67;;;4.70;;
5678;SDS011;2862;52.560;13.566;2024-01-16T10:39:11;20.63;;;3.73;;
5678;SDS011;2862;52.560;13.566;2024-01-16T10:49:20;17.80;;;3.77;;
5678;SDS011;2862;52.560;13.566;2024-01-16T10:59:24;20.10;;;3.07;;
5678;SDS011;2862;52.560;13.566;2024-01-16T11:09:32;16.47;;;3.47;;
5678;SDS011;2862;52.560;13.566;2024-01-16T11:19:36;17.50;;;3.03;;
5678;SDS011;2862;52.560;13.566;2024-01-16T11:29:41;17.43;;;3.43;;
5678;SDS011;2862;52.560;13.566;2024-01-16T11:39:44;18.23;;;2.73;;
5678;SDS011;2862;52.560;13.566;2024-01-16T11:49:50;17.33;;;2.70;;
5678;SDS011;2862;52.560;13.566;2024-01-16T12:00:00;17.03;;;2.07;;
5678;SDS011;2862;52.560;13.566;2024-01-16T12:10:14;20.50;;;3.30;;
5678;SDS011;2862;52.560;13.566;2024-01-16T12:20:18;15.20;;;1.30;;
5678;SDS011;2862;52.560;13.566;2024-01-16T12:30:23;15.77;;;2.83;;
5678;SDS011;2862;52.560;13.566;2024-01-16T12:40:26;19.67;;;3.70;;
5678;SDS011;2862;52.560;13.566;2024-01-16T12:50:31;17.40;;;3.03;;
5678;SDS011;2862;52.560;13.566;2024-01-16T13:00:35;23.00;;;3.60;;
5678;SDS011;2862;52.560;13.566;2024-01-16T13:10:40;18.97;;;3.03;;
5678;SDS011;2862;52.560;13.566;2024-01-16T13:20:43;20.60;;;3.03;;
5678;SDS011;2862;52.560;13.566;2024-01-16T13:30:48;18.87;;;3.03;;
5678;SDS011;2862;52.560;13.566;2024-01-16T13:40:51;17.60;;;2.20;;
5678;SDS011;2862;52.560;13.566;2024-01-16T13:50:56;16.23;;;1.83;;
5678;SDS011;2862;52.560;13.566;2024-01-16T14:00:59;16.43;;;1.97;;
5678;SDS011;2862;52.560;13.566;2024-01-16T14:11:04;18.80;;;2.27;;
5678;SDS011;2862;52.560;13.566;2024-01-16T14:21:07;15.97;;;1.33;;
5678;SDS011;2862;52.560;13.566;2024-01-16T14:31:11;16.67;;;1.33;;
5678;SDS011;2862;52.560;13.566;2024-01-16T14:41:14;24.43;;;1.47;;
5678;SDS011;2862;52.560;13.566;2024-01-16T14:51:20;15.17;;;1.10;;
5678;SDS011;2862;52.560;13.566;2024-01-16T15:01:23;23.73;;;1.77;;
5678;SDS011;2862;52.560;13.566;2024-01-16T15:11:28;16.77;;;1.80;;
5678;SDS011;2862;52.560;13.566;2024-01-16T15:21:31;25.43;;;3.20;;
5678;SDS011;2862;52.560;13.566;2024-01-16T15:31:35;21.90;;;4.60;;
5678;SDS011;2862;52.560;13.566;2024-01-16T15:41:39;20.07;;;3.67;;
5678;SDS011;2862;52.560;13.566;2024-01-16T15:51:43;22.10;;;3.57;;
5678;SDS011;2862;52.560;13.566;2024-01-16T16:01:47;25.37;;;2.90;;
5678;SDS011;2862;52.560;13.566;2024-01-16T16:11:51;16.23;;;2.63;;
5678;SDS011;2862;52.560;13.566;2024-01-16T16:21:54;30.03;;;4.53;;
5678;SDS011;2862;52.560;13.566;2024-01-16T16:31:58;27.60;;;9.50;;
5678;SDS011;2862;52.560;13.566;2024-01-16T16:42:02;22.07;;;6.17;;
5678;SDS011;2862;52.560;13.566;2024-01-16T16:52:06;30.93;;;7.40;;
5678;SDS011;2862;52.560;13.566;2024-01-16T17:02:09;32.67;;;10.57;;
5678;SDS011;2862;52.560;13.566;2024-01-16T17:12:14;37.97;;;9.40;;
5678;SDS011;2862;52.560;13.566;2024-01-16T17:22:17;24.73;;;5.40;;
5678;SDS011;2862;52.560;13.566;2024-01-16T17:32:21;27.50;;;7.70;;
5678;SDS011;2862;52.560;13.566;2024-01-16T17:42:24;26.20;;;5.73;;
5678;SDS011;2862;52.560;13.566;2024-01-16T17:52:28;23.07;;;4.93;;
5678;SDS011;2862;52.560;13.566;2024-01-16T18:02:34;22.37;;;4.30;;
5678;SDS011;2862;52.560;13.566;2024-01-16T18:12:41;19.77;;;4.80;;
5678;SDS011;2862;52.560;13.566;2024-01-16T18:22:45;19.53;;;3.53;;
5678;SDS011;2862;52.560;13.566;2024-01-16T18:32:50;17.40;;;4.03;;
5678;SDS011;2862;52.560;13.566;2024-01-16T18:42:54;18.00;;;4.43;;
5678;SDS011;2862;52.560;13.566;2024-01-16T18:52:58;27.57;;;6.33;;
5678;SDS011;2862;52.560;13.566;2024-01-16T19:03:02;21.33;;;5.63;;
5678;SDS011;2862;52.560;13.566;2024-01-16T19:13:06;22.50;;;7.67;;
5678;SDS011;2862;52.560;13.566;2024-01-16T19:23:12;23.30;;;6.70;;
5678;SDS011;2862;52.560;13.566;2024-01-16T19:33:16;24.20;;;8.37;;
5678;SDS011;2862;52.560;13.566;2024-01-16T19:43:19;25.80;;;9.30;;
5678;SDS011;2862;52.560;13.566;2024-01-16T19:53:23;26.40;;;7.83;;
5678;SDS011;2862;52.560;13.566;2024-01-16T20:03:27;26.83;;;9.47;;
5678;SDS011;2862;52.560;13.566;2024-01-16T20:13:34;35.47;;;9.93;;
5678;SDS011;2862;52.560;13.566;2024-01-16T20:23:36;33.83;;;8.80;;
5678;SDS011;2862;52.560;13.566;2024-01-16T20:33:41;30.57;;;10.67;;
5678;SDS011;2862;52.560;13.566;2024-01-16T20:43:47;28.33;;;6.57;;
5678;SDS011;2862;52.560;13.566;2024-01-16T20:53:52;27.03;;;6.50;;
5678;SDS011;2862;52.560;13.566;2024-01-16T21:03:55;27.70;;;5.57;;
5678;SDS011;2862;52.560;13.566;2024-01-16T21:14:04;22.50;;;5.20;;
5678;SDS011;2862;52.560;13.566;2024-01-16T21:24:07;18.00;;;3.83;;
5678;SDS011;2862;52.560;13.566;2024-01-16T21:34:11;18.70;;;3.53;;
5678;SDS011;2862;52.560;13.566;2024-01-16T21:44:16;18.03;;;3.30;;
5678;SDS011;2862;52.560;13.566;2024-01-16T21:54:21;22.17;;;4.53;;
5678;SDS011;2862;52.560;13.566;2024-01-16T22:04:24;23.17;;;4.70;;
5678;SDS011;2862;52.560;13.566;2024-01-16T22:14:29;21.47;;;4.00;;
5678;SDS011;2862;52.560;13.566;2024-01-16T22:24:37;18.60;;;3.80;;
5678;SDS011;2862;52.560;13.566;2024-01-16T22:34:42;25.03;;;4.60;;
5678;SDS011;2862;52.560;13.566;2024-01-16T22:44:45;21.33;;;3.93;;
5678;SDS011;2862;52.560;13.566;2024-01-16T22:54:49;17.13;;;3.93;;
5678;SDS011;2862;52.560;13.566;2024-01-16T23:04:52;23.97;;;4.97;;
5678;SDS011;2862;52.560;13.566;2024-01-16T23:14:58;22.40;;;4.73;;
5678;SDS011;2862;52.560;13.566;2024-01-16T23:25:01;33.77;;;5.23;;
5678;SDS011;2862;52.560;13.566;2024-01-16T23:35:07;25.63;;;6.37;;
5678;SDS011;2862;52.560;13.566;2024-01-16T23:45:11;25.17;;;5.50;;
5678;SDS011;2862;52.560;13.566;2024-01-16T23:55:19;22.67;;;6.10;;
